sensor_id;sensor_type;location;lat;lon;timestamp;pressure;altitude;pressure_sealevel;temperature;humidity
63500;BME280;49654;51.142;14.924;2023-02-16T00:00:51;100068.44;;;1.36;80.20
63500;BME280;49654;51.142;14.924;2023-02-16T00:03:20;100089.78;;;1.49;80.22
63500;BME280;49654;51.142;14.924;2023-02-16T00:05:47;100042.13;;;1.19;79.92
63500;BME280;49654;51.142;14.924;2023-02-16T00:08:16;100098.28;;;1.49;79.86
63500;BME280;49654;51.142;14.924;2023-02-16T00:10:44;100078.31;;;1.42;80.13
63500;BME280;49654;51.142;14.924;2023-02-16T00:13:31;100092.63;;;1.44;79.98
63500;BME280;49654;51.142;14.924;2023-02-16T00:16:15;100061.13;;;1.15;80.35
63500;BME280;49654;51.142;14.924;2023-02-16T00:18:43;100099.50;;;1.44;80.68
63500;BME280;49654;51.142;14.924;2023-02-16T00:21:10;100051.84;;;1.00;80.96
63500;BME280;49654;51.142;14.924;2023-02-16T00:23:38;100097.22;;;1.39;81.01
63500;BME280;49654;51.142;14.924;2023-02-16T00:26:12;100091.56;;;1.34;80.92
63500;BME280;49654;51.142;14.924;2023-02-16T00:28:41;100097.13;;;1.41;80.66
63500;BME280;49654;51.142;14.924;2023-02-16T00:31:14;100070.75;;;1.12;81.49
63500;BME280;49654;51.142;14.924;2023-02-16T00:33:42;100035.03;;;0.82;81.61
63500;BME280;49654;51.142;14.924;2023-02-16T00:36:09;100078.34;;;0.99;82.06
63500;BME280;49654;51.142;14.924;2023-02-16T00:38:37;100017.13;;;0.82;81.44
63500;BME280;49654;51.142;14.924;2023-02-16T00:41:04;100065.72;;;1.10;81.48
63500;BME280;49654;51.142;14.924;2023-02-16T00:43:51;100105.19;;;1.35;81.06
63500;BME280;49654;51.142;14.924;2023-02-16T00:46:20;100097.31;;;1.38;81.43
63500;BME280;49654;51.142;14.924;2023-02-16T00:48:47;100050.47;;;1.09;81.01
63500;BME280;49654;51.142;14.924;2023-02-16T00:51:13;100089.38;;;1.42;81.05
63500;BME280;49654;51.142;14.924;2023-02-16T00:53:42;100087.91;;;1.38;81.10
63500;BME280;49654;51.142;14.924;2023-02-16T00:56:11;100088.91;;;1.36;81.04
63500;BME280;49654;51.142;14.924;2023-02-16T00:58:40;100060.78;;;1.21;81.21
63500;BME280;49654;51.142;14.924;2023-02-16T01:01:10;100084.53;;;1.38;81.18
63500;BME280;49654;51.142;14.924;2023-02-16T01:03:37;100081.41;;;1.33;81.53
63500;BME280;49654;51.142;14.924;2023-02-16T01:06:04;100042.34;;;1.16;81.17
63500;BME280;49654;51.142;14.924;2023-02-16T01:08:50;100069.53;;;1.46;80.96
63500;BME280;49654;51.142;14.924;2023-02-16T01:11:37;100077.28;;;1.44;81.17
63500;BME280;49654;51.142;14.924;2023-02-16T01:14:04;100047.03;;;1.37;81.24
63500;BME280;49654;51.142;14.924;2023-02-16T01:16:35;100065.31;;;1.45;81.08
63500;BME280;49654;51.142;14.924;2023-02-16T01:19:02;100050.69;;;1.47;80.80
63500;BME280;49654;51.142;14.924;2023-02-16T01:21:29;100056.88;;;1.57;80.32
63500;BME280;49654;51.142;14.924;2023-02-16T01:23:58;99957.19;;;1.00;80.39
63500;BME280;49654;51.142;14.924;2023-02-16T01:26:25;100038.41;;;1.52;80.08
63500;BME280;49654;51.142;14.924;2023-02-16T01:28:52;100050.59;;;1.75;79.35
63500;BME280;49654;51.142;14.924;2023-02-16T01:31:19;100041.38;;;1.73;79.06
63500;BME280;49654;51.142;14.924;2023-02-16T01:33:46;100029.16;;;1.64;79.41
63500;BME280;49654;51.142;14.924;2023-02-16T01:36:21;100044.28;;;1.81;78.81
63500;BME280;49654;51.142;14.924;2023-02-16T01:38:49;100026.00;;;1.73;78.77
63500;BME280;49654;51.142;14.924;2023-02-16T01:41:23;99928.09;;;1.15;78.58
63500;BME280;49654;51.142;14.924;2023-02-16T01:43:57;99917.91;;;1.01;79.00
63500;BME280;49654;51.142;14.924;2023-02-16T01:46:32;99990.72;;;1.51;78.88
63500;BME280;49654;51.142;14.924;2023-02-16T01:49:03;99991.63;;;1.50;78.76
63500;BME280;49654;51.142;14.924;2023-02-16T01:51:34;99981.56;;;1.47;78.52
63500;BME280;49654;51.142;14.924;2023-02-16T01:54:09;99997.47;;;1.52;78.58
63500;BME280;49654;51.142;14.924;2023-02-16T01:56:43;100027.47;;;1.77;78.51
63500;BME280;49654;51.142;14.924;2023-02-16T01:59:18;100000.84;;;1.53;78.87
63500;BME280;49654;51.142;14.924;2023-02-16T02:01:51;100029.88;;;1.66;78.96
63500;BME280;49654;51.142;14.924;2023-02-16T02:04:24;100009.88;;;1.58;79.22
63500;BME280;49654;51.142;14.924;2023-02-16T02:07:15;100017.81;;;1.68;79.05
63500;BME280;49654;51.142;14.924;2023-02-16T02:09:51;99973.56;;;1.39;79.30
63500;BME280;49654;51.142;14.924;2023-02-16T02:12:27;100022.00;;;1.69;78.84
63500;BME280;49654;51.142;14.924;2023-02-16T02:14:58;100016.44;;;1.62;79.08
63500;BME280;49654;51.142;14.924;2023-02-16T02:17:25;100012.16;;;1.63;79.05
63500;BME280;49654;51.142;14.924;2023-02-16T02:19:58;100005.59;;;1.59;79.23
63500;BME280;49654;51.142;14.924;2023-02-16T02:26:18;99981.75;;;1.44;79.39
63500;BME280;49654;51.142;14.924;2023-02-16T02:28:59;99993.50;;;1.34;79.78
63500;BME280;49654;51.142;14.924;2023-02-16T02:31:37;99995.03;;;1.36;80.17
63500;BME280;49654;51.142;14.924;2023-02-16T02:34:18;99909.28;;;0.75;80.44
63500;BME280;49654;51.142;14.924;2023-02-16T02:36:50;99977.81;;;1.11;80.57
63500;BME280;49654;51.142;14.924;2023-02-16T02:39:32;100025.09;;;1.33;80.84
63500;BME280;49654;51.142;14.924;2023-02-16T02:42:03;100016.47;;;1.21;81.33
63500;BME280;49654;51.142;14.924;2023-02-16T02:44:41;100022.13;;;1.26;81.50
63500;BME280;49654;51.142;14.924;2023-02-16T02:47:11;99939.72;;;0.65;81.52
63500;BME280;49654;51.142;14.924;2023-02-16T02:49:37;99976.56;;;0.90;81.46
63500;BME280;49654;51.142;14.924;2023-02-16T02:52:06;100030.72;;;1.25;81.36
63500;BME280;49654;51.142;14.924;2023-02-16T02:54:37;100026.41;;;1.25;81.25
63500;BME280;49654;51.142;14.924;2023-02-16T02:57:29;100038.66;;;1.20;81.71
63500;BME280;49654;51.142;14.924;2023-02-16T03:00:19;100024.50;;;1.15;81.25
63500;BME280;49654;51.142;14.924;2023-02-16T03:03:07;100015.72;;;1.19;81.43
63500;BME280;49654;51.142;14.924;2023-02-16T03:05:37;100017.47;;;1.18;81.39
63500;BME280;49654;51.142;14.924;2023-02-16T03:08:09;100027.41;;;1.23;81.52
63500;BME280;49654;51.142;14.924;2023-02-16T03:10:42;100020.03;;;1.18;81.25
63500;BME280;49654;51.142;14.924;2023-02-16T03:13:31;100022.97;;;1.12;82.05
63500;BME280;49654;51.142;14.924;2023-02-16T03:16:06;100018.00;;;1.23;81.36
63500;BME280;49654;51.142;14.924;2023-02-16T03:18:35;100027.06;;;1.29;81.02
63500;BME280;49654;51.142;14.924;2023-02-16T03:21:21;100012.69;;;1.27;80.80
63500;BME280;49654;51.142;14.924;2023-02-16T03:24:08;100012.53;;;1.30;80.55
63500;BME280;49654;51.142;14.924;2023-02-16T03:26:55;100008.22;;;1.30;80.52
63500;BME280;49654;51.142;14.924;2023-02-16T03:29:42;100010.22;;;1.39;80.42
63500;BME280;49654;51.142;14.924;2023-02-16T03:32:12;99995.41;;;1.30;79.97
63500;BME280;49654;51.142;14.924;2023-02-16T03:34:39;100001.72;;;1.39;80.24
63500;BME280;49654;51.142;14.924;2023-02-16T03:37:06;100011.75;;;1.42;80.03
63500;BME280;49654;51.142;14.924;2023-02-16T03:39:33;99996.06;;;1.19;80.08
63500;BME280;49654;51.142;14.924;2023-02-16T03:42:21;100016.31;;;1.37;79.61
63500;BME280;49654;51.142;14.924;2023-02-16T03:44:48;100012.22;;;1.34;79.96
63500;BME280;49654;51.142;14.924;2023-02-16T03:47:17;100019.97;;;1.33;80.06
63500;BME280;49654;51.142;14.924;2023-02-16T03:49:44;100010.66;;;1.32;79.74
63500;BME280;49654;51.142;14.924;2023-02-16T03:52:12;100000.16;;;1.36;79.75
63500;BME280;49654;51.142;14.924;2023-02-16T03:54:39;100004.72;;;1.31;80.02
63500;BME280;49654;51.142;14.924;2023-02-16T03:57:05;100003.75;;;1.34;79.72
63500;BME280;49654;51.142;14.924;2023-02-16T03:59:32;100008.47;;;1.40;79.45
63500;BME280;49654;51.142;14.924;2023-02-16T04:01:59;100009.75;;;1.33;79.35
63500;BME280;49654;51.142;14.924;2023-02-16T04:04:27;100014.97;;;1.31;79.65
63500;BME280;49654;51.142;14.924;2023-02-16T04:06:54;100008.13;;;1.32;80.03
63500;BME280;49654;51.142;14.924;2023-02-16T04:09:21;100008.66;;;1.37;79.41
63500;BME280;49654;51.142;14.924;2023-02-16T04:11:48;100011.31;;;1.35;79.84
63500;BME280;49654;51.142;14.924;2023-02-16T04:14:32;99999.44;;;1.20;79.42
63500;BME280;49654;51.142;14.924;2023-02-16T04:16:59;100008.13;;;1.32;79.53
63500;BME280;49654;51.142;14.924;2023-02-16T04:19:29;100012.31;;;1.33;79.63
63500;BME280;49654;51.142;14.924;2023-02-16T04:21:56;100008.41;;;1.27;79.62
63500;BME280;49654;51.142;14.924;2023-02-16T04:24:23;100019.81;;;1.36;79.12
63500;BME280;49654;51.142;14.924;2023-02-16T04:26:50;100020.91;;;1.32;79.78
63500;BME280;49654;51.142;14.924;2023-02-16T04:29:17;100026.78;;;1.19;79.96
63500;BME280;49654;51.142;14.924;2023-02-16T04:31:43;100012.34;;;1.18;79.88
63500;BME280;49654;51.142;14.924;2023-02-16T04:34:10;100007.31;;;1.03;80.49
63500;BME280;49654;51.142;14.924;2023-02-16T04:36:39;100006.34;;;1.05;80.58
63500;BME280;49654;51.142;14.924;2023-02-16T04:39:06;99996.75;;;1.09;80.19
63500;BME280;49654;51.142;14.924;2023-02-16T04:41:32;100013.25;;;1.17;80.09
63500;BME280;49654;51.142;14.924;2023-02-16T04:43:59;99974.75;;;0.92;80.59
63500;BME280;49654;51.142;14.924;2023-02-16T04:46:26;100011.81;;;1.13;80.69
63500;BME280;49654;51.142;14.924;2023-02-16T04:48:53;100015.72;;;1.19;80.45
63500;BME280;49654;51.142;14.924;2023-02-16T04:51:20;99996.63;;;1.10;80.03
63500;BME280;49654;51.142;14.924;2023-02-16T04:53:48;100008.31;;;1.14;80.96
63500;BME280;49654;51.142;14.924;2023-02-16T04:56:15;99988.81;;;0.99;80.36
63500;BME280;49654;51.142;14.924;2023-02-16T04:58:42;100005.22;;;1.09;80.73
63500;BME280;49654;51.142;14.924;2023-02-16T05:01:17;100004.41;;;1.09;80.95
63500;BME280;49654;51.142;14.924;2023-02-16T05:03:44;99994.19;;;1.09;80.86
63500;BME280;49654;51.142;14.924;2023-02-16T05:06:11;100002.69;;;1.09;81.01
63500;BME280;49654;51.142;14.924;2023-02-16T05:08:38;100002.28;;;1.15;80.88
63500;BME280;49654;51.142;14.924;2023-02-16T05:11:06;100006.06;;;1.10;80.87
63500;BME280;49654;51.142;14.924;2023-02-16T05:13:51;100007.97;;;1.20;80.39
63500;BME280;49654;51.142;14.924;2023-02-16T05:16:36;100002.09;;;1.18;80.41
63500;BME280;49654;51.142;14.924;2023-02-16T05:19:03;100005.59;;;1.17;79.97
63500;BME280;49654;51.142;14.924;2023-02-16T05:21:30;99999.19;;;1.10;80.35
63500;BME280;49654;51.142;14.924;2023-02-16T05:23:57;99992.25;;;1.12;80.28
63500;BME280;49654;51.142;14.924;2023-02-16T05:26:26;99989.88;;;1.09;80.34
63500;BME280;49654;51.142;14.924;2023-02-16T05:28:53;99997.28;;;1.14;80.10
63500;BME280;49654;51.142;14.924;2023-02-16T05:31:21;99996.63;;;1.10;80.38
63500;BME280;49654;51.142;14.924;2023-02-16T05:33:48;100005.41;;;1.06;80.52
63500;BME280;49654;51.142;14.924;2023-02-16T05:36:15;100007.44;;;1.01;80.74
63500;BME280;49654;51.142;14.924;2023-02-16T05:38:42;100010.53;;;1.06;80.71
63500;BME280;49654;51.142;14.924;2023-02-16T05:41:09;100014.75;;;1.07;80.86
63500;BME280;49654;51.142;14.924;2023-02-16T05:43:38;99996.28;;;1.02;80.72
63500;BME280;49654;51.142;14.924;2023-02-16T05:46:06;100011.91;;;1.12;80.37
63500;BME280;49654;51.142;14.924;2023-02-16T05:48:33;100010.63;;;1.05;80.81
63500;BME280;49654;51.142;14.924;2023-02-16T05:51:00;100014.19;;;1.02;80.50
63500;BME280;49654;51.142;14.924;2023-02-16T05:53:27;100026.78;;;1.05;80.47
63500;BME280;49654;51.142;14.924;2023-02-16T05:55:54;100021.84;;;1.02;80.57
63500;BME280;49654;51.142;14.924;2023-02-16T05:58:21;100026.34;;;0.98;80.71
63500;BME280;49654;51.142;14.924;2023-02-16T06:00:50;100033.19;;;0.98;81.03
63500;BME280;49654;51.142;14.924;2023-02-16T06:03:16;100027.25;;;0.97;81.33
63500;BME280;49654;51.142;14.924;2023-02-16T06:05:43;100023.97;;;0.95;80.98
63500;BME280;49654;51.142;14.924;2023-02-16T06:08:10;100032.28;;;0.99;80.93
63500;BME280;49654;51.142;14.924;2023-02-16T06:10:37;100013.66;;;0.83;81.31
63500;BME280;49654;51.142;14.924;2023-02-16T06:13:04;100029.09;;;0.95;81.09
63500;BME280;49654;51.142;14.924;2023-02-16T06:15:31;100022.78;;;1.01;81.28
63500;BME280;49654;51.142;14.924;2023-02-16T06:18:00;100021.22;;;0.98;80.87
63500;BME280;49654;51.142;14.924;2023-02-16T06:20:27;100026.44;;;0.97;81.16
63500;BME280;49654;51.142;14.924;2023-02-16T06:22:54;100023.34;;;0.92;81.33
63500;BME280;49654;51.142;14.924;2023-02-16T06:25:21;100021.31;;;0.97;81.35
63500;BME280;49654;51.142;14.924;2023-02-16T06:27:48;100029.28;;;0.92;81.43
63500;BME280;49654;51.142;14.924;2023-02-16T06:30:17;100018.41;;;0.89;81.62
63500;BME280;49654;51.142;14.924;2023-02-16T06:32:44;100024.97;;;0.93;81.78
63500;BME280;49654;51.142;14.924;2023-02-16T06:35:12;100013.94;;;0.92;81.51
63500;BME280;49654;51.142;14.924;2023-02-16T06:37:39;99994.09;;;0.67;82.12
63500;BME280;49654;51.142;14.924;2023-02-16T06:40:07;100017.84;;;0.84;81.91
63500;BME280;49654;51.142;14.924;2023-02-16T06:42:34;100011.66;;;0.88;81.75
63500;BME280;49654;51.142;14.924;2023-02-16T06:45:02;100005.06;;;0.84;82.18
63500;BME280;49654;51.142;14.924;2023-02-16T06:47:29;100006.72;;;0.99;81.41
63500;BME280;49654;51.142;14.924;2023-02-16T06:49:56;100005.63;;;1.03;81.03
63500;BME280;49654;51.142;14.924;2023-02-16T06:52:24;100013.44;;;1.14;80.56
63500;BME280;49654;51.142;14.924;2023-02-16T06:54:51;100014.47;;;1.12;80.57
63500;BME280;49654;51.142;14.924;2023-02-16T06:57:18;100024.50;;;1.15;80.62
63500;BME280;49654;51.142;14.924;2023-02-16T06:59:45;100020.03;;;1.18;80.52
63500;BME280;49654;51.142;14.924;2023-02-16T07:02:12;100019.72;;;1.23;80.43
63500;BME280;49654;51.142;14.924;2023-02-16T07:04:39;100023.22;;;1.22;80.35
63500;BME280;49654;51.142;14.924;2023-02-16T07:07:06;100020.13;;;1.17;80.62
63500;BME280;49654;51.142;14.924;2023-02-16T07:09:35;100018.06;;;1.36;79.75
63500;BME280;49654;51.142;14.924;2023-02-16T07:12:03;100014.03;;;1.46;79.04
63500;BME280;49654;51.142;14.924;2023-02-16T07:14:31;100021.44;;;1.37;79.45
63500;BME280;49654;51.142;14.924;2023-02-16T07:16:58;100026.31;;;1.41;79.83
63500;BME280;49654;51.142;14.924;2023-02-16T07:19:29;100026.91;;;1.45;79.68
63500;BME280;49654;51.142;14.924;2023-02-16T07:21:57;100037.22;;;1.58;79.26
63500;BME280;49654;51.142;14.924;2023-02-16T07:24:24;100025.91;;;1.47;79.15
63500;BME280;49654;51.142;14.924;2023-02-16T07:26:54;100021.56;;;1.62;79.04
63500;BME280;49654;51.142;14.924;2023-02-16T07:29:21;100022.13;;;1.67;78.60
63500;BME280;49654;51.142;14.924;2023-02-16T07:31:48;100021.44;;;1.51;78.81
63500;BME280;49654;51.142;14.924;2023-02-16T07:34:15;100015.13;;;1.69;78.67
63500;BME280;49654;51.142;14.924;2023-02-16T07:36:42;100009.59;;;1.63;78.80
63500;BME280;49654;51.142;14.924;2023-02-16T07:39:10;100001.63;;;1.67;78.42
63500;BME280;49654;51.142;14.924;2023-02-16T07:41:37;100017.06;;;1.93;78.31
63500;BME280;49654;51.142;14.924;2023-02-16T07:44:05;100029.78;;;1.94;77.68
63500;BME280;49654;51.142;14.924;2023-02-16T07:46:32;100025.06;;;2.01;77.46
63500;BME280;49654;51.142;14.924;2023-02-16T07:48:59;100018.22;;;2.02;77.49
63500;BME280;49654;51.142;14.924;2023-02-16T07:51:29;100012.81;;;2.19;77.02
63500;BME280;49654;51.142;14.924;2023-02-16T07:53:57;100013.44;;;2.35;76.47
63500;BME280;49654;51.142;14.924;2023-02-16T07:56:25;99998.28;;;2.19;76.47
63500;BME280;49654;51.142;14.924;2023-02-16T07:58:53;100006.88;;;2.44;76.21
63500;BME280;49654;51.142;14.924;2023-02-16T08:01:22;100001.16;;;2.53;75.45
63500;BME280;49654;51.142;14.924;2023-02-16T08:03:49;100003.50;;;2.43;75.57
63500;BME280;49654;51.142;14.924;2023-02-16T08:06:17;100007.72;;;2.57;75.87
63500;BME280;49654;51.142;14.924;2023-02-16T08:08:44;100011.94;;;2.71;75.21
63500;BME280;49654;51.142;14.924;2023-02-16T08:11:13;100014.88;;;2.65;74.89
63500;BME280;49654;51.142;14.924;2023-02-16T08:13:41;100016.56;;;2.53;75.43
63500;BME280;49654;51.142;14.924;2023-02-16T08:16:08;100001.56;;;2.47;75.56
63500;BME280;49654;51.142;14.924;2023-02-16T08:18:37;100024.22;;;2.40;76.26
63500;BME280;49654;51.142;14.924;2023-02-16T08:21:08;100004.63;;;2.65;75.87
63500;BME280;49654;51.142;14.924;2023-02-16T08:23:39;100003.91;;;2.75;75.37
63500;BME280;49654;51.142;14.924;2023-02-16T08:26:09;99993.25;;;2.69;74.82
63500;BME280;49654;51.142;14.924;2023-02-16T08:28:36;100003.63;;;2.67;75.17
63500;BME280;49654;51.142;14.924;2023-02-16T08:31:04;99997.88;;;2.51;75.50
63500;BME280;49654;51.142;14.924;2023-02-16T08:33:33;99996.22;;;2.63;75.94
63500;BME280;49654;51.142;14.924;2023-02-16T08:36:02;100006.34;;;2.90;74.91
63500;BME280;49654;51.142;14.924;2023-02-16T08:38:34;100004.22;;;2.96;74.63
63500;BME280;49654;51.142;14.924;2023-02-16T08:41:01;100014.03;;;3.03;73.87
63500;BME280;49654;51.142;14.924;2023-02-16T08:43:28;100008.19;;;3.13;73.76
63500;BME280;49654;51.142;14.924;2023-02-16T08:45:54;100012.63;;;3.35;73.08
63500;BME280;49654;51.142;14.924;2023-02-16T08:48:21;100005.31;;;3.42;72.21
63500;BME280;49654;51.142;14.924;2023-02-16T08:50:49;100005.13;;;3.32;72.30
63500;BME280;49654;51.142;14.924;2023-02-16T08:53:21;100015.81;;;3.39;72.30
63500;BME280;49654;51.142;14.924;2023-02-16T08:55:53;100018.94;;;3.18;72.62
63500;BME280;49654;51.142;14.924;2023-02-16T08:58:20;99995.16;;;2.91;73.03
63500;BME280;49654;51.142;14.924;2023-02-16T09:00:48;99998.06;;;2.73;73.18
63500;BME280;49654;51.142;14.924;2023-02-16T09:03:15;100020.81;;;2.78;73.96
63500;BME280;49654;51.142;14.924;2023-02-16T09:05:43;100048.31;;;3.14;73.86
63500;BME280;49654;51.142;14.924;2023-02-16T09:08:11;99951.72;;;2.38;74.06
63500;BME280;49654;51.142;14.924;2023-02-16T09:10:40;99882.31;;;1.90;73.89
63500;BME280;49654;51.142;14.924;2023-02-16T09:13:08;100044.00;;;3.02;73.69
63500;BME280;49654;51.142;14.924;2023-02-16T09:15:35;100052.81;;;3.23;73.42
63500;BME280;49654;51.142;14.924;2023-02-16T09:18:02;100060.00;;;3.18;73.98
63500;BME280;49654;51.142;14.924;2023-02-16T09:20:29;100054.47;;;2.86;74.16
63500;BME280;49654;51.142;14.924;2023-02-16T09:22:57;100029.00;;;3.21;74.27
63500;BME280;49654;51.142;14.924;2023-02-16T09:25:24;100021.84;;;3.38;73.18
63500;BME280;49654;51.142;14.924;2023-02-16T09:27:52;100044.56;;;3.44;72.47
63500;BME280;49654;51.142;14.924;2023-02-16T09:30:19;100056.03;;;3.38;73.00
63500;BME280;49654;51.142;14.924;2023-02-16T09:32:47;100000.53;;;3.24;72.96
63500;BME280;49654;51.142;14.924;2023-02-16T09:35:15;100034.44;;;3.54;72.69
63500;BME280;49654;51.142;14.924;2023-02-16T09:37:42;100040.84;;;3.72;72.26
63500;BME280;49654;51.142;14.924;2023-02-16T09:40:12;100037.03;;;3.78;72.09
63500;BME280;49654;51.142;14.924;2023-02-16T09:42:49;100037.56;;;3.94;71.54
63500;BME280;49654;51.142;14.924;2023-02-16T09:45:21;99947.41;;;3.38;71.51
63500;BME280;49654;51.142;14.924;2023-02-16T09:47:50;99903.13;;;3.23;70.67
63500;BME280;49654;51.142;14.924;2023-02-16T09:50:23;100034.59;;;4.11;70.59
63500;BME280;49654;51.142;14.924;2023-02-16T09:52:52;100035.59;;;3.97;70.48
63500;BME280;49654;51.142;14.924;2023-02-16T09:55:23;100042.69;;;4.18;70.23
63500;BME280;49654;51.142;14.924;2023-02-16T09:57:59;100015.19;;;4.07;69.70
63500;BME280;49654;51.142;14.924;2023-02-16T10:00:42;100038.66;;;4.49;69.14
63500;BME280;49654;51.142;14.924;2023-02-16T10:03:19;100034.94;;;4.42;69.03
63500;BME280;49654;51.142;14.924;2023-02-16T10:05:55;100009.09;;;4.43;68.53
63500;BME280;49654;51.142;14.924;2023-02-16T10:08:27;100026.25;;;4.43;68.51
63500;BME280;49654;51.142;14.924;2023-02-16T10:11:02;100025.09;;;4.47;68.49
63500;BME280;49654;51.142;14.924;2023-02-16T10:13:35;100016.81;;;4.55;69.11
63500;BME280;49654;51.142;14.924;2023-02-16T10:16:10;99956.59;;;4.35;68.55
63500;BME280;49654;51.142;14.924;2023-02-16T10:18:40;99998.94;;;4.64;67.85
63500;BME280;49654;51.142;14.924;2023-02-16T10:21:14;100030.16;;;5.05;67.55
63500;BME280;49654;51.142;14.924;2023-02-16T10:23:45;100033.31;;;5.31;66.60
63500;BME280;49654;51.142;14.924;2023-02-16T10:26:20;100011.06;;;5.30;65.91
63500;BME280;49654;51.142;14.924;2023-02-16T10:28:52;100008.53;;;5.18;65.79
63500;BME280;49654;51.142;14.924;2023-02-16T10:31:27;100017.16;;;5.28;66.03
63500;BME280;49654;51.142;14.924;2023-02-16T10:34:07;100006.28;;;5.25;66.12
63500;BME280;49654;51.142;14.924;2023-02-16T10:36:52;100015.06;;;5.22;65.90
63500;BME280;49654;51.142;14.924;2023-02-16T10:39:27;100007.19;;;5.35;65.81
63500;BME280;49654;51.142;14.924;2023-02-16T10:42:01;99943.94;;;4.99;66.31
63500;BME280;49654;51.142;14.924;2023-02-16T10:44:33;100007.91;;;5.69;65.60
63500;BME280;49654;51.142;14.924;2023-02-16T10:47:04;99966.81;;;5.68;64.09
63500;BME280;49654;51.142;14.924;2023-02-16T10:49:34;99972.03;;;5.77;63.96
63500;BME280;49654;51.142;14.924;2023-02-16T10:52:02;100002.75;;;6.13;64.13
63500;BME280;49654;51.142;14.924;2023-02-16T10:54:31;99986.25;;;6.25;63.63
63500;BME280;49654;51.142;14.924;2023-02-16T10:57:00;99993.91;;;6.36;63.47
63500;BME280;49654;51.142;14.924;2023-02-16T10:59:33;100008.19;;;6.19;62.96
63500;BME280;49654;51.142;14.924;2023-02-16T11:02:19;99889.31;;;5.81;63.34
63500;BME280;49654;51.142;14.924;2023-02-16T11:04:49;99993.25;;;6.65;62.88
63500;BME280;49654;51.142;14.924;2023-02-16T11:07:20;99887.94;;;6.18;61.85
63500;BME280;49654;51.142;14.924;2023-02-16T11:09:49;99999.38;;;6.64;62.12
63500;BME280;49654;51.142;14.924;2023-02-16T11:12:25;99980.19;;;6.57;62.82
63500;BME280;49654;51.142;14.924;2023-02-16T11:14:55;99998.81;;;6.91;62.34
63500;BME280;49654;51.142;14.924;2023-02-16T11:17:26;99979.19;;;6.78;62.73
63500;BME280;49654;51.142;14.924;2023-02-16T11:19:56;99911.47;;;6.56;61.51
63500;BME280;49654;51.142;14.924;2023-02-16T11:22:27;99880.66;;;6.64;61.21
63500;BME280;49654;51.142;14.924;2023-02-16T11:24:55;99986.66;;;7.32;60.75
63500;BME280;49654;51.142;14.924;2023-02-16T11:27:24;99965.88;;;7.33;60.75
63500;BME280;49654;51.142;14.924;2023-02-16T11:30:14;99986.97;;;7.48;60.65
63500;BME280;49654;51.142;14.924;2023-02-16T11:32:49;99962.50;;;7.33;60.23
63500;BME280;49654;51.142;14.924;2023-02-16T11:35:17;99971.97;;;7.13;60.34
63500;BME280;49654;51.142;14.924;2023-02-16T11:37:44;99963.22;;;6.94;60.79
63500;BME280;49654;51.142;14.924;2023-02-16T11:40:21;99964.69;;;6.97;61.27
63500;BME280;49654;51.142;14.924;2023-02-16T11:42:51;99958.88;;;6.95;60.52
63500;BME280;49654;51.142;14.924;2023-02-16T11:45:25;99973.59;;;7.23;60.67
63500;BME280;49654;51.142;14.924;2023-02-16T11:47:56;99940.59;;;7.66;59.36
63500;BME280;49654;51.142;14.924;2023-02-16T11:50:26;99927.25;;;7.70;58.15
63500;BME280;49654;51.142;14.924;2023-02-16T11:52:55;99947.22;;;7.88;58.77
63500;BME280;49654;51.142;14.924;2023-02-16T11:55:26;99976.09;;;8.02;58.88
63500;BME280;49654;51.142;14.924;2023-02-16T11:58:13;99969.97;;;7.94;58.11
63500;BME280;49654;51.142;14.924;2023-02-16T12:00:48;99887.28;;;7.07;59.10
63500;BME280;49654;51.142;14.924;2023-02-16T12:03:33;99896.91;;;7.14;59.80
63500;BME280;49654;51.142;14.924;2023-02-16T12:06:14;99854.16;;;6.62;59.97
63500;BME280;49654;51.142;14.924;2023-02-16T12:09:02;99969.84;;;7.47;60.44
63500;BME280;49654;51.142;14.924;2023-02-16T12:11:39;99933.91;;;7.34;59.53
63500;BME280;49654;51.142;14.924;2023-02-16T12:14:30;99942.75;;;7.32;60.23
63500;BME280;49654;51.142;14.924;2023-02-16T12:17:10;99960.06;;;7.80;59.02
63500;BME280;49654;51.142;14.924;2023-02-16T12:19:45;99961.13;;;7.77;58.87
63500;BME280;49654;51.142;14.924;2023-02-16T12:22:27;99951.47;;;7.89;58.65
63500;BME280;49654;51.142;14.924;2023-02-16T12:25:07;99946.97;;;7.52;58.91
63500;BME280;49654;51.142;14.924;2023-02-16T12:27:48;99880.34;;;7.07;59.56
63500;BME280;49654;51.142;14.924;2023-02-16T12:30:27;99934.72;;;7.25;59.98
63500;BME280;49654;51.142;14.924;2023-02-16T12:33:19;99819.13;;;6.98;59.43
63500;BME280;49654;51.142;14.924;2023-02-16T12:36:01;99894.34;;;7.53;58.99
63500;BME280;49654;51.142;14.924;2023-02-16T12:38:41;99805.22;;;7.57;57.34
63500;BME280;49654;51.142;14.924;2023-02-16T12:41:20;99854.84;;;7.70;57.41
63500;BME280;49654;51.142;14.924;2023-02-16T12:43:54;99918.00;;;8.34;58.11
63500;BME280;49654;51.142;14.924;2023-02-16T12:46:26;99898.84;;;8.64;56.49
63500;BME280;49654;51.142;14.924;2023-02-16T12:48:58;99909.00;;;8.75;55.12
63500;BME280;49654;51.142;14.924;2023-02-16T12:51:33;99909.13;;;9.01;55.66
63500;BME280;49654;51.142;14.924;2023-02-16T12:54:06;99844.19;;;8.40;55.82
63500;BME280;49654;51.142;14.924;2023-02-16T12:56:38;99879.47;;;8.41;56.14
63500;BME280;49654;51.142;14.924;2023-02-16T12:59:16;99877.41;;;8.44;57.30
63500;BME280;49654;51.142;14.924;2023-02-16T13:01:45;99901.34;;;8.84;57.10
63500;BME280;49654;51.142;14.924;2023-02-16T13:04:18;99746.59;;;7.95;55.87
63500;BME280;49654;51.142;14.924;2023-02-16T13:06:55;99890.28;;;8.82;56.04
63500;BME280;49654;51.142;14.924;2023-02-16T13:09:33;99891.16;;;9.18;55.60
63500;BME280;49654;51.142;14.924;2023-02-16T13:12:07;99853.63;;;9.04;54.14
63500;BME280;49654;51.142;14.924;2023-02-16T13:14:39;99853.06;;;9.54;53.51
63500;BME280;49654;51.142;14.924;2023-02-16T13:17:11;99894.78;;;9.43;54.12